Time;durP1;ratioP1;P1;durP2;ratioP2;P2;SDS_P1;SDS_P2;PMS_P1;PMS_P2;Temp;Humidity;BMP_temperature;BMP_pressure;BME280_temperature;BME280_humidity;BME280_pressure;Samples;Min_cycle;Max_cycle;Signal;HPM_P1;HPM_P2
2022/05/15 01:51:25;;;;;;;760.58;222.23;;;;;;;;;;5391125;22;21225895;-90
2022/05/15 04:30:15;;;;;;;852.17;255.95;;;;;;;;;;6357320;22;20040;-85
2022/05/15 04:32:42;;;;;;;847.75;253.88;;;;;;;;;;6353788;22;20014;-86
2022/05/15 04:35:09;;;;;;;840.53;252.60;;;;;;;;;;6346402;22;20030;-87
2022/05/15 04:37:36;;;;;;;828.65;248.43;;;;;;;;;;6345429;22;20017;-85
2022/05/15 04:40:04;;;;;;;846.70;253.68;;;;;;;;;;6347062;22;20434;-85
2022/05/15 04:42:31;;;;;;;;;;;;;;;;;;6345162;22;20081;-87
2022/05/15 04:44:57;;;;;;;850.08;256.77;;;;;;;;;;6373301;22;19898;-86
2022/05/15 04:47:23;;;;;;;837.05;251.80;;;;;;;;;;6346363;22;20085;-87
2022/05/15 04:49:51;;;;;;;850.60;255.95;;;;;;;;;;6381973;22;20005;-86
2022/05/15 04:52:17;;;;;;;859.85;259.58;;;;;;;;;;6355426;22;20047;-87
2022/05/15 04:54:44;;;;;;;883.85;267.15;;;;;;;;;;6380613;22;20032;-86
2022/05/15 04:57:10;;;;;;;880.30;265.77;;;;;;;;;;6377931;22;20001;-87
2022/05/15 04:59:36;;;;;;;872.13;263.10;;;;;;;;;;6369256;22;20017;-87
2022/05/15 05:02:06;;;;;;;885.15;266.60;;;;;;;;;;6348859;22;20007;-87
2022/05/15 05:04:34;;;;;;;881.95;265.75;;;;;;;;;;6350140;22;20002;-87
2022/05/15 05:07:00;;;;;;;884.53;267.23;;;;;;;;;;6382285;22;19998;-85
2022/05/15 05:09:27;;;;;;;907.08;273.70;;;;;;;;;;6352207;22;20002;-86
2022/05/15 05:11:55;;;;;;;908.60;275.65;;;;;;;;;;6374945;22;20014;-86
2022/05/15 05:14:21;;;;;;;911.47;275.67;;;;;;;;;;6374139;22;20010;-86
2022/05/15 05:16:47;;;;;;;900.78;272.77;;;;;;;;;;6368305;22;20349;-86
2022/05/15 05:19:14;;;;;;;903.80;274.58;;;;;;;;;;6366582;22;20341;-88
2022/05/15 05:21:40;;;;;;;920.13;279.00;;;;;;;;;;6366738;22;20060;-86
2022/05/15 05:24:06;;;;;;;894.63;269.85;;;;;;;;;;6366195;22;20055;-87
2022/05/15 05:26:32;;;;;;;919.47;279.08;;;;;;;;;;6339201;22;20455;-89
2022/05/15 05:28:58;;;;;;;901.13;273.52;;;;;;;;;;6366127;22;20010;-86
2022/05/15 05:31:24;;;;;;;923.22;281.95;;;;;;;;;;6342236;22;20397;-86
2022/05/15 05:33:50;;;;;;;928.78;282.38;;;;;;;;;;6369843;22;19994;-87
2022/05/15 05:36:16;;;;;;;931.13;282.63;;;;;;;;;;6345315;22;20005;-88
2022/05/15 05:38:45;;;;;;;937.10;284.40;;;;;;;;;;6372485;22;19998;-90
2022/05/15 05:41:11;;;;;;;940.70;286.15;;;;;;;;;;6373479;22;20466;-85
2022/05/15 05:43:37;;;;;;;952.47;289.05;;;;;;;;;;6339918;22;20566;-89
2022/05/15 05:46:05;;;;;;;940.70;284.63;;;;;;;;;;6370858;22;20006;-88
2022/05/15 05:48:36;;;;;;;948.00;286.85;;;;;;;;;;6343832;22;20389;-86
2022/05/15 05:51:03;;;;;;;954.58;291.75;;;;;;;;;;6370966;22;20007;-86
2022/05/15 05:53:29;;;;;;;964.45;294.23;;;;;;;;;;6370847;22;20006;-88
2022/05/15 05:55:56;;;;;;;973.75;298.42;;;;;;;;;;6372175;22;20029;-89
2022/05/15 05:58:25;;;;;;;962.75;294.60;;;;;;;;;;6383429;22;20002;-93
2022/05/15 06:01:00;;;;;;;976.95;298.13;;;;;;;;;;6387938;22;20432;-89
2022/05/15 06:06:10;;;;;;;1001.85;305.55;;;;;;;;;;6385991;22;20090;-90
2022/05/15 06:08:37;;;;;;;1005.53;307.48;;;;;;;;;;6384946;22;19998;-87
2022/05/15 06:11:03;;;;;;;1014.58;309.65;;;;;;;;;;6387836;22;20008;-88
2022/05/15 06:13:29;;;;;;;1007.13;307.15;;;;;;;;;;6386831;22;19994;-89
2022/05/15 06:15:55;;;;;;;1011.22;308.48;;;;;;;;;;6394288;22;20005;-89
2022/05/15 06:18:23;;;;;;;938.22;277.38;;;;;;;;;;6394738;22;20435;-87
2022/05/15 06:20:49;;;;;;;908.10;265.93;;;;;;;;;;6367347;22;20366;-90
2022/05/15 06:23:17;;;;;;;1103.30;328.10;;;;;;;;;;6395961;22;20023;-87
2022/05/15 06:25:43;;;;;;;;;;;;;;;;;;6392394;22;20009;-93
2022/05/15 06:28:09;;;;;;;1083.13;327.83;;;;;;;;;;6385143;22;19906;-92
2022/05/15 06:30:37;;;;;;;1077.90;324.38;;;;;;;;;;6384794;22;20010;-93
2022/05/15 06:33:05;;;;;;;1065.22;322.80;;;;;;;;;;6386597;22;19999;-93
2022/05/15 06:35:31;;;;;;;1063.30;323.60;;;;;;;;;;6358586;22;20029;-93
2022/05/15 06:38:00;;;;;;;1057.75;323.58;;;;;;;;;;6356821;22;19998;-91
2022/05/15 06:40:26;;;;;;;1062.97;326.05;;;;;;;;;;6384455;22;20010;-93
2022/05/15 06:42:54;;;;;;;1063.15;325.23;;;;;;;;;;6389942;22;20001;-93
2022/05/15 06:45:21;;;;;;;1054.97;323.00;;;;;;;;;;6390433;22;20065;-94
2022/05/15 06:47:47;;;;;;;1055.80;326.00;;;;;;;;;;6361160;22;20001;-94
2022/05/15 06:50:14;;;;;;;1060.53;327.00;;;;;;;;;;6385364;22;19994;-92
2022/05/15 06:52:40;;;;;;;1068.32;327.60;;;;;;;;;;6381210;22;20005;-87
2022/05/15 06:55:11;;;;;;;1090.13;332.65;;;;;;;;;;6360646;22;20012;-90
2022/05/15 06:57:38;;;;;;;1084.10;332.13;;;;;;;;;;6387763;22;19994;-91
2022/05/15 07:00:06;;;;;;;1089.97;334.27;;;;;;;;;;6381356;22;20009;-94
2022/05/15 07:02:33;;;;;;;1110.45;338.02;;;;;;;;;;6370938;22;19998;-92
2022/05/15 07:05:00;;;;;;;1122.75;342.63;;;;;;;;;;6377252;22;20328;-87
2022/05/15 07:07:26;;;;;;;1155.28;351.85;;;;;;;;;;6379127;22;20002;-92
2022/05/15 07:09:53;;;;;;;1177.07;356.20;;;;;;;;;;6349625;22;20002;-91
2022/05/15 07:12:19;;;;;;;1168.07;352.45;;;;;;;;;;6370338;22;20037;-88
2022/05/15 07:14:45;;;;;;;1172.88;352.50;;;;;;;;;;6368221;22;20006;-86
2022/05/15 07:17:11;;;;;;;1176.18;350.67;;;;;;;;;;6368890;22;20003;-87
2022/05/15 07:19:37;;;;;;;1176.25;351.15;;;;;;;;;;6369441;22;20011;-85
2022/05/15 07:22:03;;;;;;;1177.65;351.65;;;;;;;;;;6369620;22;20492;-87
2022/05/15 07:24:30;;;;;;;1185.95;354.10;;;;;;;;;;6371438;22;20005;-91
2022/05/15 07:26:56;;;;;;;1197.68;356.58;;;;;;;;;;6370690;22;20026;-87
2022/05/15 07:29:24;;;;;;;1211.40;360.52;;;;;;;;;;6376507;22;20059;-93
2022/05/15 07:31:51;;;;;;;;;;;;;;;;;;6374375;22;19994;-89
2022/05/15 07:34:21;;;;;;;1209.28;362.45;;;;;;;;;;6383836;22;19898;-86
2022/05/15 07:36:52;;;;;;;1203.82;361.05;;;;;;;;;;6378759;22;19999;-87
2022/05/15 07:39:34;;;;;;;1190.47;356.27;;;;;;;;;;6378521;22;20401;-88
2022/05/15 07:42:13;;;;;;;1188.18;355.95;;;;;;;;;;6350833;22;20113;-87
2022/05/15 07:45:00;;;;;;;1183.18;354.17;;;;;;;;;;6378843;22;20005;-87
2022/05/15 07:47:28;;;;;;;1183.35;356.50;;;;;;;;;;6281640;22;20008;-88
2022/05/15 07:49:59;;;;;;;1211.90;361.52;;;;;;;;;;6282722;22;20006;-88
2022/05/15 07:52:33;;;;;;;1211.43;362.63;;;;;;;;;;6284534;22;20347;-88
2022/05/15 07:55:01;;;;;;;1208.32;361.10;;;;;;;;;;6277760;22;20023;-88
2022/05/15 07:57:27;;;;;;;1210.65;362.40;;;;;;;;;;6277229;22;20004;-87
2022/05/15 07:59:56;;;;;;;1196.97;358.75;;;;;;;;;;6280880;22;20433;-88
2022/05/15 08:02:22;;;;;;;1182.82;355.33;;;;;;;;;;6282012;22;20014;-87
2022/05/15 08:10:20;;;;;;;1194.75;358.63;;;;;;;;;;6281462;22;20398;-89
2022/05/15 08:12:46;;;;;;;1201.63;359.73;;;;;;;;;;6252859;22;20031;-88
2022/05/15 08:15:12;;;;;;;1194.32;357.45;;;;;;;;;;6224387;22;20008;-87
2022/05/15 08:17:38;;;;;;;1209.22;360.73;;;;;;;;;;6280554;22;20539;-87
2022/05/15 08:25:35;;;;;;;1208.35;357.80;;;;;;;;;;6279112;22;20480;-91
2022/05/15 08:28:01;;;;;;;1209.28;359.95;;;;;;;;;;6279274;22;20471;-90
2022/05/15 08:30:28;;;;;;;1229.88;362.65;;;;;;;;;;6292905;22;20335;-89
2022/05/15 08:32:54;;;;;;;1209.72;357.40;;;;;;;;;;6343322;22;20351;-90
2022/05/15 08:35:24;;;;;;;1219.70;357.25;;;;;;;;;;6372100;22;20002;-88
2022/05/15 08:37:50;;;;;;;1206.43;356.80;;;;;;;;;;6372225;22;20022;-90
2022/05/15 08:40:17;;;;;;;1207.55;355.48;;;;;;;;;;6348411;22;20047;-90
2022/05/15 08:42:50;;;;;;;1202.35;356.02;;;;;;;;;;6377628;22;19995;-92
2022/05/15 08:45:21;;;;;;;1240.13;363.70;;;;;;;;;;6374002;22;20389;-90
2022/05/15 08:47:48;;;;;;;1256.32;368.00;;;;;;;;;;6342877;22;20003;-90
2022/05/15 08:50:19;;;;;;;1251.55;366.95;;;;;;;;;;6376594;22;20002;-87
2022/05/15 08:52:48;;;;;;;1273.00;371.88;;;;;;;;;;6383848;22;20001;-88
2022/05/15 08:55:16;;;;;;;1267.75;370.27;;;;;;;;;;6394399;22;20031;-88
2022/05/15 08:57:42;;;;;;;;;;;;;;;;;;6398585;22;19978;-90
2022/05/15 09:00:13;;;;;;;1270.30;371.90;;;;;;;;;;6392676;22;19957;-88
2022/05/15 09:02:43;;;;;;;1241.72;361.02;;;;;;;;;;6389380;22;19998;-87
2022/05/15 09:05:10;;;;;;;1273.50;371.65;;;;;;;;;;6349310;22;20009;-91
2022/05/15 09:08:01;;;;;;;1255.95;364.77;;;;;;;;;;6369048;22;20675;-88
2022/05/15 09:10:57;;;;;;;1258.22;365.00;;;;;;;;;;6367127;22;20004;-88
2022/05/15 09:13:32;;;;;;;1285.90;374.13;;;;;;;;;;6205250;22;20369;-88
2022/05/15 09:16:00;;;;;;;1249.13;361.15;;;;;;;;;;6370803;22;20039;-92
2022/05/15 09:18:27;;;;;;;1271.07;371.13;;;;;;;;;;6370579;22;20022;-92
2022/05/15 09:20:57;;;;;;;1264.78;367.55;;;;;;;;;;6376238;22;20048;-87
2022/05/15 09:23:23;;;;;;;1241.68;359.20;;;;;;;;;;6370081;22;20073;-89
2022/05/15 09:26:00;;;;;;;1255.18;361.40;;;;;;;;;;6346850;22;19998;-90
2022/05/15 09:28:27;;;;;;;1253.28;360.33;;;;;;;;;;6378023;22;20105;-91
2022/05/15 09:30:54;;;;;;;1253.78;359.17;;;;;;;;;;6346053;22;20083;-88
2022/05/15 09:33:34;;;;;;;1239.80;355.30;;;;;;;;;;6366524;22;20060;-89
2022/05/15 09:36:19;;;;;;;1230.05;354.00;;;;;;;;;;6374845;22;20427;-90
2022/05/15 09:38:49;;;;;;;1246.05;356.73;;;;;;;;;;6379956;22;20001;-90
2022/05/15 09:44:04;;;;;;;1268.78;360.58;;;;;;;;;;6379199;22;20069;-89
2022/05/15 09:46:31;;;;;;;1257.10;360.48;;;;;;;;;;6381460;22;19999;-90
2022/05/15 09:49:06;;;;;;;1262.15;362.08;;;;;;;;;;6375775;22;19994;-89
2022/05/15 09:51:46;;;;;;;1249.22;357.25;;;;;;;;;;6380976;22;20564;-88
2022/05/15 09:54:36;;;;;;;1252.65;358.33;;;;;;;;;;6350273;22;20089;-89
2022/05/15 09:57:08;;;;;;;1252.43;358.65;;;;;;;;;;6330748;22;20028;-90
2022/05/15 09:59:34;;;;;;;1257.72;359.77;;;;;;;;;;6372532;22;20026;-90
2022/05/15 10:02:02;;;;;;;1254.40;359.45;;;;;;;;;;6374885;22;20009;-93
2022/05/15 10:04:28;;;;;;;;;;;;;;;;;;6378574;22;20013;-95
2022/05/15 10:07:04;;;;;;;1258.68;360.30;;;;;;;;;;6376397;22;19898;-93
2022/05/15 10:09:35;;;;;;;1252.63;358.48;;;;;;;;;;6387291;22;20003;-96
2022/05/15 10:12:20;;;;;;;1252.47;358.27;;;;;;;;;;6355021;22;20343;-96
2022/05/15 10:14:51;;;;;;;1251.97;356.13;;;;;;;;;;6385926;22;20082;-95
2022/05/15 10:17:22;;;;;;;1248.68;355.50;;;;;;;;;;6392688;22;19986;-95
2022/05/15 10:20:07;;;;;;;1251.68;356.52;;;;;;;;;;6388369;22;19999;-93
2022/05/15 10:23:00;;;;;;;1237.50;352.58;;;;;;;;;;6393538;22;20001;-89
2022/05/15 10:25:35;;;;;;;1244.18;353.38;;;;;;;;;;6358798;22;19998;-91
2022/05/15 10:28:24;;;;;;;1255.28;355.15;;;;;;;;;;6384598;22;20074;-91
2022/05/15 10:30:57;;;;;;;1246.68;354.10;;;;;;;;;;6369728;22;20020;-88
2022/05/15 10:33:24;;;;;;;1247.47;353.27;;;;;;;;;;6380002;22;20070;-96
2022/05/15 10:36:18;;;;;;;1235.82;350.52;;;;;;;;;;6379019;22;20002;-88
2022/05/15 10:39:04;;;;;;;1247.47;353.63;;;;;;;;;;6315398;22;20009;-90
2022/05/15 10:42:03;;;;;;;1219.63;344.85;;;;;;;;;;6373779;22;20029;-89
2022/05/15 10:44:34;;;;;;;1208.20;342.13;;;;;;;;;;6367788;22;20446;-89
2022/05/15 10:47:07;;;;;;;1209.70;340.48;;;;;;;;;;6372955;22;20030;-90
2022/05/15 10:49:48;;;;;;;1216.55;342.20;;;;;;;;;;6374914;22;19995;-91
2022/05/15 10:52:23;;;;;;;1207.95;339.25;;;;;;;;;;6344692;22;20081;-89
2022/05/15 10:58:03;;;;;;;1207.18;340.23;;;;;;;;;;6375917;22;20010;-94
2022/05/15 11:00:38;;;;;;;1188.43;333.63;;;;;;;;;;6372627;22;20081;-90
2022/05/15 11:03:07;;;;;;;1226.47;342.48;;;;;;;;;;6372847;22;19999;-89
2022/05/15 11:05:37;;;;;;;1213.68;338.63;;;;;;;;;;6378477;22;20085;-92
2022/05/15 11:08:22;;;;;;;1197.32;334.95;;;;;;;;;;6380641;22;20002;-90
2022/05/15 11:11:13;;;;;;;1173.35;328.65;;;;;;;;;;6377749;22;20078;-90
2022/05/15 11:13:49;;;;;;;1179.20;328.92;;;;;;;;;;6374666;22;20372;-90
2022/05/15 11:16:26;;;;;;;1206.65;337.48;;;;;;;;;;6373674;22;20022;-88
2022/05/15 11:19:09;;;;;;;1199.75;337.02;;;;;;;;;;6345272;22;20085;-88
2022/05/15 11:21:47;;;;;;;1164.75;326.63;;;;;;;;;;6380508;22;20018;-94
2022/05/15 11:24:31;;;;;;;1165.55;325.63;;;;;;;;;;6354365;22;20299;-93
2022/05/15 11:27:01;;;;;;;1174.90;327.98;;;;;;;;;;6350640;22;20081;-90
2022/05/15 11:29:27;;;;;;;1171.53;328.73;;;;;;;;;;6353585;22;20006;-89
2022/05/15 11:31:56;;;;;;;1160.28;325.20;;;;;;;;;;6394978;22;20010;-86
2022/05/15 11:34:43;;;;;;;1149.63;323.02;;;;;;;;;;6394201;22;19982;-89
2022/05/15 11:37:28;;;;;;;1176.85;331.95;;;;;;;;;;6314412;22;20014;-87
2022/05/15 11:40:20;;;;;;;1136.68;318.77;;;;;;;;;;6354995;22;20014;-86
2022/05/15 11:42:46;;;;;;;1159.50;325.52;;;;;;;;;;6251077;22;20520;-89
2022/05/15 11:45:39;;;;;;;1165.95;326.70;;;;;;;;;;6250908;22;20003;-87
2022/05/15 11:48:17;;;;;;;1196.03;335.45;;;;;;;;;;6265502;22;20060;-88
2022/05/15 11:50:59;;;;;;;1189.40;333.80;;;;;;;;;;6275474;22;20035;-87
2022/05/15 11:53:31;;;;;;;1191.60;333.58;;;;;;;;;;6274756;22;19999;-86
2022/05/15 11:56:00;;;;;;;1200.38;335.20;;;;;;;;;;6276395;22;20010;-86
2022/05/15 11:58:36;;;;;;;1186.95;331.42;;;;;;;;;;6251472;22;20356;-87
2022/05/15 12:01:07;;;;;;;1178.00;327.63;;;;;;;;;;6272446;22;20023;-88
2022/05/15 12:03:39;;;;;;;1190.22;330.25;;;;;;;;;;6248574;22;20004;-87
2022/05/15 12:06:09;;;;;;;1168.28;325.58;;;;;;;;;;6287611;22;20011;-92
2022/05/15 12:08:37;;;;;;;1166.32;324.10;;;;;;;;;;6289418;22;20046;-94
2022/05/15 12:11:14;;;;;;;1175.32;325.95;;;;;;;;;;6287384;22;20004;-91
2022/05/15 12:13:42;;;;;;;1185.73;329.73;;;;;;;;;;6279556;22;20003;-93
2022/05/15 12:16:21;;;;;;;1183.50;326.98;;;;;;;;;;6286517;22;19991;-88
2022/05/15 12:18:53;;;;;;;1169.35;326.42;;;;;;;;;;6254698;22;20011;-94
2022/05/15 12:21:23;;;;;;;1222.45;337.30;;;;;;;;;;6280116;22;20011;-94
2022/05/15 12:26:51;;;;;;;1195.03;331.48;;;;;;;;;;6252189;22;20014;-93
2022/05/15 12:29:37;;;;;;;1216.18;334.50;;;;;;;;;;6286405;22;20098;-91
2022/05/15 12:32:07;;;;;;;1210.10;334.80;;;;;;;;;;6224159;22;20015;-91
2022/05/15 12:34:37;;;;;;;1198.30;332.73;;;;;;;;;;6265936;22;20118;-88
2022/05/15 12:37:05;;;;;;;1191.72;331.20;;;;;;;;;;6284837;22;20050;-91
2022/05/15 12:39:35;;;;;;;1180.93;326.75;;;;;;;;;;6294329;22;20074;-86
2022/05/15 12:42:24;;;;;;;1181.07;326.73;;;;;;;;;;6290642;22;20010;-92
2022/05/15 12:45:19;;;;;;;1166.50;322.08;;;;;;;;;;6250085;22;20031;-92
2022/05/15 12:48:07;;;;;;;1176.00;324.25;;;;;;;;;;6286744;22;20314;-92
2022/05/15 12:50:52;;;;;;;1199.55;330.65;;;;;;;;;;6280785;22;20027;-92
2022/05/15 12:53:40;;;;;;;1178.32;325.67;;;;;;;;;;6368471;22;20315;-88
2022/05/15 12:56:13;;;;;;;1196.57;330.48;;;;;;;;;;6381177;22;20005;-92
2022/05/15 12:58:40;;;;;;;1199.55;329.35;;;;;;;;;;6383813;22;20028;-93
2022/05/15 13:01:06;;;;;;;1182.75;326.42;;;;;;;;;;6354596;22;20018;-94
2022/05/15 13:03:33;;;;;;;1180.05;328.95;;;;;;;;;;6382326;22;19998;-95
2022/05/15 13:06:08;;;;;;;1198.50;341.90;;;;;;;;;;6374963;22;19998;-94
2022/05/15 13:08:55;;;;;;;1303.03;458.23;;;;;;;;;;6389994;22;19999;-92
2022/05/15 13:11:23;;;;;;;1283.20;380.67;;;;;;;;;;6386966;22;19978;-95
2022/05/15 13:13:50;;;;;;;1228.35;366.85;;;;;;;;;;6373909;22;19994;-95
2022/05/15 13:16:21;;;;;;;1235.55;345.33;;;;;;;;;;6390122;22;20267;-88
2022/05/15 13:19:13;;;;;;;1266.82;347.48;;;;;;;;;;6384354;22;20351;-86
2022/05/15 13:21:47;;;;;;;1289.82;362.08;;;;;;;;;;6375905;22;20038;-95
2022/05/15 13:24:15;;;;;;;1247.82;346.35;;;;;;;;;;6386341;22;20006;-96
2022/05/15 13:27:04;;;;;;;1246.00;344.58;;;;;;;;;;6392831;22;20009;-94
2022/05/15 13:29:33;;;;;;;1254.90;356.60;;;;;;;;;;6377118;22;20006;-88
2022/05/15 13:32:04;;;;;;;1219.07;342.75;;;;;;;;;;6384402;22;20005;-86
2022/05/15 13:34:30;;;;;;;1222.60;339.85;;;;;;;;;;6386314;22;20003;-94
2022/05/15 13:36:56;;;;;;;1248.43;339.50;;;;;;;;;;6387177;22;19998;-85
2022/05/15 13:44:56;;;;;;;1239.28;337.65;;;;;;;;;;6387980;22;20013;-95
2022/05/15 13:47:23;;;;;;;1247.95;342.10;;;;;;;;;;6389974;22;20047;-94
2022/05/15 13:49:53;;;;;;;1251.15;340.13;;;;;;;;;;6393740;22;19997;-88
2022/05/15 13:52:24;;;;;;;1263.70;341.10;;;;;;;;;;6357401;22;19986;-96
2022/05/15 13:54:50;;;;;;;1237.05;334.90;;;;;;;;;;6382709;22;20002;-94
2022/05/15 13:57:16;;;;;;;1235.00;333.50;;;;;;;;;;6378779;22;20280;-90
2022/05/15 13:59:51;;;;;;;1211.50;327.00;;;;;;;;;;6383523;22;19983;-86
2022/05/15 14:02:21;;;;;;;1212.22;327.63;;;;;;;;;;6353116;22;20015;-86
2022/05/15 14:04:54;;;;;;;1198.85;324.83;;;;;;;;;;6379438;22;19995;-88
2022/05/15 14:07:27;;;;;;;1221.65;330.33;;;;;;;;;;6375601;22;20430;-86
2022/05/15 14:09:58;;;;;;;1242.78;336.20;;;;;;;;;;6390992;22;20006;-89
2022/05/15 14:12:43;;;;;;;1207.00;327.85;;;;;;;;;;6394718;22;20038;-89
2022/05/15 14:15:28;;;;;;;1227.93;331.05;;;;;;;;;;6367086;22;19989;-90
2022/05/15 14:18:03;;;;;;;1252.38;336.75;;;;;;;;;;6391096;22;20450;-87
2022/05/15 14:20:31;;;;;;;1234.15;332.33;;;;;;;;;;6359430;22;20014;-93
2022/05/15 14:22:58;;;;;;;1198.82;323.23;;;;;;;;;;6380469;22;20022;-89
2022/05/15 14:25:26;;;;;;;1205.85;325.08;;;;;;;;;;6353175;22;20058;-93
2022/05/15 14:27:52;;;;;;;1205.68;324.83;;;;;;;;;;6341316;22;20002;-91
2022/05/15 14:30:21;;;;;;;1216.43;325.83;;;;;;;;;;6348233;22;20083;-92
2022/05/15 14:32:57;;;;;;;1217.25;327.38;;;;;;;;;;6384410;22;20014;-89
2022/05/15 14:35:28;;;;;;;1224.20;329.40;;;;;;;;;;6363063;22;20074;-94
2022/05/15 14:37:55;;;;;;;1257.43;336.67;;;;;;;;;;6355418;22;20089;-92
2022/05/15 14:40:42;;;;;;;1167.03;316.63;;;;;;;;;;6382557;22;20007;-93
2022/05/15 14:43:15;;;;;;;1135.05;307.63;;;;;;;;;;6288938;22;20007;-92
2022/05/15 14:45:47;;;;;;;1174.80;317.10;;;;;;;;;;6274292;22;20074;-92
2022/05/15 14:48:17;;;;;;;1151.43;308.85;;;;;;;;;;6283971;22;20003;-90
2022/05/15 14:50:46;;;;;;;1151.47;309.75;;;;;;;;;;6281900;22;19991;-93
2022/05/15 14:53:36;;;;;;;1138.22;308.52;;;;;;;;;;6287141;22;20004;-89
2022/05/15 14:56:10;;;;;;;1164.07;316.52;;;;;;;;;;6282959;22;20011;-93
2022/05/15 14:58:36;;;;;;;1163.20;315.30;;;;;;;;;;6251702;22;20012;-93
2022/05/15 15:01:02;;;;;;;1145.53;311.35;;;;;;;;;;6273944;22;20016;-89
2022/05/15 15:03:39;;;;;;;1137.80;309.45;;;;;;;;;;6280587;22;20030;-89
2022/05/15 15:06:05;;;;;;;1108.53;302.20;;;;;;;;;;6287604;22;19992;-91
2022/05/15 15:08:31;;;;;;;1122.57;305.27;;;;;;;;;;6287464;22;20066;-89
2022/05/15 15:11:15;;;;;;;1066.90;292.33;;;;;;;;;;6258959;22;20027;-91
2022/05/15 15:13:48;;;;;;;1085.30;297.13;;;;;;;;;;6284470;22;20004;-93
2022/05/15 15:16:16;;;;;;;1139.15;308.95;;;;;;;;;;6223082;22;20007;-90
2022/05/15 15:18:42;;;;;;;1139.00;310.20;;;;;;;;;;6252615;22;20007;-94
2022/05/15 15:21:08;;;;;;;1119.80;305.40;;;;;;;;;;6255298;22;20067;-95
2022/05/15 15:23:39;;;;;;;1103.82;301.42;;;;;;;;;;6261996;22;20030;-93
2022/05/15 15:26:05;;;;;;;1112.03;303.65;;;;;;;;;;6284814;22;20019;-91
2022/05/15 15:28:31;;;;;;;1100.75;302.48;;;;;;;;;;6253075;22;20056;-91
2022/05/15 15:30:58;;;;;;;1123.07;306.98;;;;;;;;;;6283728;22;20007;-88
2022/05/15 15:33:25;;;;;;;1071.45;293.48;;;;;;;;;;6333219;22;20014;-87
2022/05/15 15:35:51;;;;;;;1095.50;299.35;;;;;;;;;;6349988;22;20005;-93
2022/05/15 15:38:20;;;;;;;1081.18;297.70;;;;;;;;;;6350218;22;20042;-88
2022/05/15 15:40:48;;;;;;;1074.15;295.08;;;;;;;;;;6381572;22;20386;-92
2022/05/15 15:43:17;;;;;;;1107.00;303.83;;;;;;;;;;6383492;22;20730;-87
2022/05/15 15:45:46;;;;;;;1125.22;308.02;;;;;;;;;;6377316;22;20007;-88
2022/05/15 15:48:13;;;;;;;1089.30;300.08;;;;;;;;;;6350261;22;20032;-92
2022/05/15 15:50:45;;;;;;;1149.07;314.60;;;;;;;;;;6383471;22;20003;-89
2022/05/15 15:53:12;;;;;;;1169.68;320.13;;;;;;;;;;6382019;22;20001;-87
2022/05/15 15:55:42;;;;;;;1173.05;320.90;;;;;;;;;;6386951;22;20042;-88
2022/05/15 15:58:19;;;;;;;1181.03;322.70;;;;;;;;;;6382697;22;20002;-91
2022/05/15 16:00:46;;;;;;;1152.57;315.38;;;;;;;;;;6383156;22;20003;-87
2022/05/15 16:03:12;;;;;;;1198.63;327.50;;;;;;;;;;6378637;22;19999;-88
2022/05/15 16:05:40;;;;;;;1231.68;333.42;;;;;;;;;;6360239;22;20008;-92
2022/05/15 16:08:12;;;;;;;1181.55;321.63;;;;;;;;;;6384797;22;19998;-89
2022/05/15 16:10:51;;;;;;;1141.15;313.15;;;;;;;;;;6360517;22;20066;-92
2022/05/15 16:13:25;;;;;;;1169.00;320.73;;;;;;;;;;6386900;22;20006;-94
2022/05/15 16:15:53;;;;;;;1181.50;323.52;;;;;;;;;;6387453;22;20005;-88
2022/05/15 16:18:24;;;;;;;1120.93;311.00;;;;;;;;;;6388323;22;19978;-90
2022/05/15 16:20:56;;;;;;;1137.38;314.13;;;;;;;;;;6392347;22;20009;-89
2022/05/15 16:23:42;;;;;;;1144.95;315.98;;;;;;;;;;6386515;22;20011;-86
2022/05/15 16:26:10;;;;;;;1177.60;324.23;;;;;;;;;;6375911;22;20009;-94
2022/05/15 16:28:40;;;;;;;1162.53;319.42;;;;;;;;;;6367496;22;20014;-94
2022/05/15 16:31:06;;;;;;;1173.03;321.60;;;;;;;;;;6380256;22;20442;-89
2022/05/15 16:33:33;;;;;;;1172.15;318.63;;;;;;;;;;6371638;22;19998;-95
2022/05/15 16:36:00;;;;;;;1129.13;308.17;;;;;;;;;;6369389;22;20050;-94
2022/05/15 16:38:30;;;;;;;1106.38;302.13;;;;;;;;;;6342843;22;20022;-89
2022/05/15 16:40:58;;;;;;;1150.10;311.95;;;;;;;;;;6380061;22;20014;-90
2022/05/15 16:43:24;;;;;;;1106.70;300.98;;;;;;;;;;6369938;22;20002;-92
2022/05/15 16:45:51;;;;;;;1102.57;300.70;;;;;;;;;;6340381;22;20434;-93
2022/05/15 16:48:17;;;;;;;1108.00;300.60;;;;;;;;;;6368430;22;20014;-94
2022/05/15 16:50:43;;;;;;;1101.15;299.15;;;;;;;;;;6372474;22;19999;-92
2022/05/15 16:53:13;;;;;;;1104.05;299.88;;;;;;;;;;6367676;22;20033;-90
2022/05/15 16:55:40;;;;;;;1071.93;291.58;;;;;;;;;;6394651;22;20034;-90
2022/05/15 16:58:09;;;;;;;578.15;149.55;;;;;;;;;;6395075;22;20038;-91
2022/05/15 17:00:38;;;;;;;573.20;149.50;;;;;;;;;;6366240;22;20014;-89
2022/05/15 17:03:04;;;;;;;568.85;147.35;;;;;;;;;;6381700;22;20009;-92
2022/05/15 17:05:31;;;;;;;626.13;161.70;;;;;;;;;;6387308;22;20124;-91
2022/05/15 17:07:58;;;;;;;688.80;179.00;;;;;;;;;;6357509;22;20009;-93
2022/05/15 17:10:27;;;;;;;689.90;178.50;;;;;;;;;;6383490;22;20498;-95
2022/05/15 17:12:54;;;;;;;865.83;228.18;;;;;;;;;;6356863;22;20050;-93
2022/05/15 17:15:21;;;;;;;622.88;160.23;;;;;;;;;;6378865;22;20051;-95
2022/05/15 17:17:50;;;;;;;975.70;258.30;;;;;;;;;;6345237;22;20017;-92
2022/05/15 17:20:16;;;;;;;1029.53;276.15;;;;;;;;;;6373550;22;20163;-94
2022/05/15 17:22:44;;;;;;;1025.05;276.05;;;;;;;;;;6375864;22;20133;-95
2022/05/15 17:25:11;;;;;;;987.10;266.17;;;;;;;;;;6347289;22;20312;-93
2022/05/15 17:27:37;;;;;;;680.38;177.63;;;;;;;;;;6346393;22;20007;-89
2022/05/15 17:35:33;;;;;;;1011.08;277.80;;;;;;;;;;6367217;22;20017;-94
2022/05/15 17:38:05;;;;;;;1025.00;280.92;;;;;;;;;;6338244;22;20002;-89
2022/05/15 17:40:33;;;;;;;1016.08;278.08;;;;;;;;;;6375823;22;20079;-89
2022/05/15 17:43:05;;;;;;;1019.28;279.42;;;;;;;;;;6346173;22;20002;-87
2022/05/15 17:45:37;;;;;;;1807.75;492.35;;;;;;;;;;6353704;22;20021;-88
2022/05/15 17:48:05;;;;;;;1925.13;530.17;;;;;;;;;;6373190;22;19994;-92
2022/05/15 17:50:33;;;;;;;1873.32;511.23;;;;;;;;;;6340120;22;20004;-88
2022/05/15 17:53:00;;;;;;;;;;;;;;;;;;6368268;22;19998;-90
2022/05/15 17:55:28;;;;;;;1863.75;511.27;;;;;;;;;;6368247;22;19902;-88
2022/05/15 17:57:54;;;;;;;1671.03;455.30;;;;;;;;;;6377157;22;20024;-92
2022/05/15 18:00:22;;;;;;;1621.72;439.33;;;;;;;;;;6367763;22;20010;-93
2022/05/15 18:02:48;;;;;;;1663.68;452.85;;;;;;;;;;6366176;22;20003;-88
2022/05/15 18:05:16;;;;;;;1672.40;454.13;;;;;;;;;;6369432;22;19999;-91
2022/05/15 18:07:43;;;;;;;1642.35;446.67;;;;;;;;;;6372918;22;20006;-91
2022/05/15 18:10:10;;;;;;;1661.47;458.53;;;;;;;;;;6339512;22;20114;-89
2022/05/15 18:12:37;;;;;;;1631.60;447.40;;;;;;;;;;6372084;22;20457;-89
2022/05/15 18:15:04;;;;;;;1685.50;465.35;;;;;;;;;;6379173;22;20009;-92
2022/05/15 18:17:30;;;;;;;1657.80;459.95;;;;;;;;;;6344657;22;20003;-89
2022/05/15 18:20:00;;;;;;;1629.18;450.48;;;;;;;;;;6347205;22;20003;-91
2022/05/15 18:22:26;;;;;;;1619.63;448.33;;;;;;;;;;6371576;22;20002;-93
2022/05/15 18:24:52;;;;;;;1615.28;451.80;;;;;;;;;;6355848;22;19998;-92
2022/05/15 18:27:21;;;;;;;1624.65;456.00;;;;;;;;;;6353790;22;20007;-90
2022/05/15 18:29:48;;;;;;;1622.57;454.58;;;;;;;;;;6379824;22;20010;-91
2022/05/15 18:32:15;;;;;;;1592.43;444.95;;;;;;;;;;6377541;22;20002;-91
2022/05/15 18:34:41;;;;;;;1594.10;450.45;;;;;;;;;;6386129;22;19998;-93
2022/05/15 18:37:07;;;;;;;1666.00;474.55;;;;;;;;;;6379652;22;20006;-91
2022/05/15 18:39:33;;;;;;;1588.00;443.95;;;;;;;;;;6376104;22;20003;-93
2022/05/15 18:42:06;;;;;;;1591.57;444.20;;;;;;;;;;6374276;22;19998;-93
2022/05/15 18:44:41;;;;;;;1600.20;448.52;;;;;;;;;;6348027;22;20059;-95
2022/05/15 18:47:08;;;;;;;1607.00;452.45;;;;;;;;;;6348482;22;20002;-93
2022/05/15 18:54:54;;;;;;;1672.07;470.25;;;;;;;;;;6349769;22;20002;-92
2022/05/15 18:55:34;;;;;;;1662.47;476.98;;;;;;;;;;6374939;22;20013;-89
2022/05/15 18:58:02;;;;;;;1645.22;473.35;;;;;;;;;;6356573;22;19998;-91
2022/05/15 19:00:49;;;;;;;1674.45;487.48;;;;;;;;;;6379080;22;20034;-88
2022/05/15 19:03:25;;;;;;;1664.45;479.08;;;;;;;;;;6381885;22;19990;-88
2022/05/15 19:05:53;;;;;;;1661.20;478.05;;;;;;;;;;6346642;22;20416;-88
2022/05/15 19:08:20;;;;;;;1654.53;474.58;;;;;;;;;;6370543;22;20445;-87